sensor_id;sensor_type;location;lat;lon;timestamp;pressure;altitude;pressure_sealevel;temperature;humidity
35848;BME280;22332;51.954;20.118;2023-11-18T00:01:54;100233.58;;;2.96;86.06
35848;BME280;22332;51.954;20.118;2023-11-18T00:05:01;100237.79;;;2.93;86.22
35848;BME280;22332;51.954;20.118;2023-11-18T00:08:06;100243.20;;;2.89;86.17
35848;BME280;22332;51.954;20.118;2023-11-18T00:11:12;100244.44;;;2.86;86.25
35848;BME280;22332;51.954;20.118;2023-11-18T00:14:18;100245.34;;;2.81;86.14
35848;BME280;22332;51.954;20.118;2023-11-18T00:17:25;100243.91;;;2.73;86.57
35848;BME280;22332;51.954;20.118;2023-11-18T00:20:30;100244.27;;;2.73;86.59
35848;BME280;22332;51.954;20.118;2023-11-18T00:23:36;100246.80;;;2.82;86.77
35848;BME280;22332;51.954;20.118;2023-11-18T00:26:41;100253.84;;;2.90;86.53
35848;BME280;22332;51.954;20.118;2023-11-18T00:29:47;100258.13;;;2.89;86.44
35848;BME280;22332;51.954;20.118;2023-11-18T00:32:52;100262.51;;;2.86;86.26
35848;BME280;22332;51.954;20.118;2023-11-18T00:35:58;100270.02;;;2.80;86.25
35848;BME280;22332;51.954;20.118;2023-11-18T00:39:05;100269.77;;;2.72;86.37
35848;BME280;22332;51.954;20.118;2023-11-18T00:42:10;100272.17;;;2.70;86.49
35848;BME280;22332;51.954;20.118;2023-11-18T00:45:18;100272.83;;;2.71;86.47
35848;BME280;22332;51.954;20.118;2023-11-18T00:48:24;100277.48;;;2.65;86.46
35848;BME280;22332;51.954;20.118;2023-11-18T00:51:30;100284.72;;;2.64;86.44
35848;BME280;22332;51.954;20.118;2023-11-18T00:54:35;100281.90;;;2.67;86.61
35848;BME280;22332;51.954;20.118;2023-11-18T00:57:41;100285.23;;;2.72;86.39
35848;BME280;22332;51.954;20.118;2023-11-18T01:00:47;100287.38;;;2.77;86.51
35848;BME280;22332;51.954;20.118;2023-11-18T01:03:52;100289.48;;;2.85;86.47
35848;BME280;22332;51.954;20.118;2023-11-18T01:06:58;100284.95;;;2.90;86.19
35848;BME280;22332;51.954;20.118;2023-11-18T01:10:04;100280.60;;;2.92;86.13
35848;BME280;22332;51.954;20.118;2023-11-18T01:13:10;100277.55;;;2.90;85.95
35848;BME280;22332;51.954;20.118;2023-11-18T01:16:16;100277.41;;;2.87;86.02
35848;BME280;22332;51.954;20.118;2023-11-18T01:19:22;100276.56;;;2.79;85.99
35848;BME280;22332;51.954;20.118;2023-11-18T01:22:28;100285.00;;;2.70;86.20
35848;BME280;22332;51.954;20.118;2023-11-18T01:25:33;100277.52;;;2.64;86.03
35848;BME280;22332;51.954;20.118;2023-11-18T01:28:39;100279.90;;;2.60;86.36
35848;BME280;22332;51.954;20.118;2023-11-18T01:31:47;100278.26;;;2.61;86.47
35848;BME280;22332;51.954;20.118;2023-11-18T01:34:53;100276.08;;;2.64;86.32
35848;BME280;22332;51.954;20.118;2023-11-18T01:37:58;100276.98;;;2.67;86.33
35848;BME280;22332;51.954;20.118;2023-11-18T01:41:04;100276.60;;;2.72;86.11
35848;BME280;22332;51.954;20.118;2023-11-18T01:44:10;100272.78;;;2.72;86.19
35848;BME280;22332;51.954;20.118;2023-11-18T01:47:18;100273.31;;;2.69;86.09
35848;BME280;22332;51.954;20.118;2023-11-18T01:50:23;100278.70;;;2.65;86.18
35848;BME280;22332;51.954;20.118;2023-11-18T01:53:29;100281.11;;;2.58;86.21
35848;BME280;22332;51.954;20.118;2023-11-18T01:56:37;100281.42;;;2.50;86.35
35848;BME280;22332;51.954;20.118;2023-11-18T01:59:43;100276.88;;;2.45;86.31
35848;BME280;22332;51.954;20.118;2023-11-18T02:02:50;100281.90;;;2.40;86.49
35848;BME280;22332;51.954;20.118;2023-11-18T02:05:56;100280.81;;;2.35;86.42
35848;BME280;22332;51.954;20.118;2023-11-18T02:09:02;100278.25;;;2.34;86.50
35848;BME280;22332;51.954;20.118;2023-11-18T02:12:19;100281.20;;;2.37;86.59
35848;BME280;22332;51.954;20.118;2023-11-18T02:15:26;100279.64;;;2.40;86.64
35848;BME280;22332;51.954;20.118;2023-11-18T02:18:34;100278.04;;;2.34;86.37
35848;BME280;22332;51.954;20.118;2023-11-18T02:21:41;100282.96;;;2.29;86.41
35848;BME280;22332;51.954;20.118;2023-11-18T02:24:48;100283.54;;;2.31;86.68
35848;BME280;22332;51.954;20.118;2023-11-18T02:27:54;100284.89;;;2.29;86.47
35848;BME280;22332;51.954;20.118;2023-11-18T02:31:03;100288.02;;;2.29;86.82
35848;BME280;22332;51.954;20.118;2023-11-18T02:34:16;100296.93;;;2.39;86.62
35848;BME280;22332;51.954;20.118;2023-11-18T02:37:25;100299.42;;;2.43;86.69
35848;BME280;22332;51.954;20.118;2023-11-18T02:40:39;100300.90;;;2.42;86.48
35848;BME280;22332;51.954;20.118;2023-11-18T02:43:48;100306.96;;;2.35;86.48
35848;BME280;22332;51.954;20.118;2023-11-18T02:46:56;100310.46;;;2.30;86.43
35848;BME280;22332;51.954;20.118;2023-11-18T02:50:02;100313.78;;;2.30;86.66
35848;BME280;22332;51.954;20.118;2023-11-18T02:53:09;100313.08;;;2.30;86.59
35848;BME280;22332;51.954;20.118;2023-11-18T02:56:15;100313.06;;;2.28;86.65
35848;BME280;22332;51.954;20.118;2023-11-18T02:59:23;100314.55;;;2.21;86.59
35848;BME280;22332;51.954;20.118;2023-11-18T03:02:28;100313.62;;;2.22;86.74
35848;BME280;22332;51.954;20.118;2023-11-18T03:05:35;100315.86;;;2.25;86.76
35848;BME280;22332;51.954;20.118;2023-11-18T03:08:41;100317.50;;;2.27;86.75
35848;BME280;22332;51.954;20.118;2023-11-18T03:11:47;100322.98;;;2.29;86.89
35848;BME280;22332;51.954;20.118;2023-11-18T03:14:55;100330.17;;;2.26;86.62
35848;BME280;22332;51.954;20.118;2023-11-18T03:18:02;100336.71;;;2.20;86.68
35848;BME280;22332;51.954;20.118;2023-11-18T03:21:12;100338.68;;;2.17;86.73
35848;BME280;22332;51.954;20.118;2023-11-18T03:24:17;100346.86;;;2.10;86.73
35848;BME280;22332;51.954;20.118;2023-11-18T03:27:23;100350.09;;;2.06;87.03
35848;BME280;22332;51.954;20.118;2023-11-18T03:30:28;100352.73;;;2.08;87.01
35848;BME280;22332;51.954;20.118;2023-11-18T03:33:34;100353.06;;;2.11;87.01
35848;BME280;22332;51.954;20.118;2023-11-18T03:36:39;100347.38;;;2.13;87.00
35848;BME280;22332;51.954;20.118;2023-11-18T03:39:46;100344.38;;;2.16;87.12
35848;BME280;22332;51.954;20.118;2023-11-18T03:42:51;100346.30;;;2.13;86.89
35848;BME280;22332;51.954;20.118;2023-11-18T03:45:58;100350.38;;;2.07;86.90
35848;BME280;22332;51.954;20.118;2023-11-18T03:49:03;100361.27;;;2.07;87.00
35848;BME280;22332;51.954;20.118;2023-11-18T03:52:09;100365.90;;;2.03;87.00
35848;BME280;22332;51.954;20.118;2023-11-18T03:55:15;100369.72;;;1.98;87.01
35848;BME280;22332;51.954;20.118;2023-11-18T03:58:22;100378.54;;;2.00;87.19
35848;BME280;22332;51.954;20.118;2023-11-18T04:01:29;100380.85;;;2.05;87.37
35848;BME280;22332;51.954;20.118;2023-11-18T04:04:34;100376.64;;;2.11;87.26
35848;BME280;22332;51.954;20.118;2023-11-18T04:07:40;100374.94;;;2.15;87.08
35848;BME280;22332;51.954;20.118;2023-11-18T04:10:46;100384.58;;;2.18;86.93
35848;BME280;22332;51.954;20.118;2023-11-18T04:13:51;100392.83;;;2.15;87.14
35848;BME280;22332;51.954;20.118;2023-11-18T04:16:58;100397.86;;;2.13;87.09
35848;BME280;22332;51.954;20.118;2023-11-18T04:20:05;100400.67;;;2.11;87.17
35848;BME280;22332;51.954;20.118;2023-11-18T04:23:15;100399.45;;;2.11;87.09
35848;BME280;22332;51.954;20.118;2023-11-18T04:26:22;100402.35;;;2.06;87.18
35848;BME280;22332;51.954;20.118;2023-11-18T04:29:29;100408.73;;;1.96;87.25
35848;BME280;22332;51.954;20.118;2023-11-18T04:32:37;100409.61;;;1.96;87.46
35848;BME280;22332;51.954;20.118;2023-11-18T04:35:43;100410.25;;;1.97;87.30
35848;BME280;22332;51.954;20.118;2023-11-18T04:38:51;100413.27;;;2.06;87.48
35848;BME280;22332;51.954;20.118;2023-11-18T04:41:56;100417.45;;;2.09;87.10
35848;BME280;22332;51.954;20.118;2023-11-18T04:45:02;100412.94;;;2.05;86.98
35848;BME280;22332;51.954;20.118;2023-11-18T04:48:08;100411.19;;;2.05;87.23
35848;BME280;22332;51.954;20.118;2023-11-18T04:51:14;100405.88;;;2.00;87.20
35848;BME280;22332;51.954;20.118;2023-11-18T04:54:19;100414.40;;;1.99;87.39
35848;BME280;22332;51.954;20.118;2023-11-18T04:57:25;100415.46;;;1.99;87.46
35848;BME280;22332;51.954;20.118;2023-11-18T05:00:30;100418.40;;;1.93;87.26
35848;BME280;22332;51.954;20.118;2023-11-18T05:03:36;100422.89;;;1.89;87.48
35848;BME280;22332;51.954;20.118;2023-11-18T05:06:42;100423.76;;;1.86;87.32
35848;BME280;22332;51.954;20.118;2023-11-18T05:09:47;100427.42;;;1.95;87.83
35848;BME280;22332;51.954;20.118;2023-11-18T05:12:53;100428.98;;;2.04;87.68
35848;BME280;22332;51.954;20.118;2023-11-18T05:16:00;100428.80;;;2.04;87.55
35848;BME280;22332;51.954;20.118;2023-11-18T05:19:05;100436.64;;;1.93;87.30
35848;BME280;22332;51.954;20.118;2023-11-18T05:22:12;100438.62;;;1.84;87.57
35848;BME280;22332;51.954;20.118;2023-11-18T05:25:17;100439.87;;;1.78;87.99
35848;BME280;22332;51.954;20.118;2023-11-18T05:28:23;100443.42;;;1.80;87.90
35848;BME280;22332;51.954;20.118;2023-11-18T05:31:29;100451.45;;;1.83;87.91
35848;BME280;22332;51.954;20.118;2023-11-18T05:34:36;100461.10;;;1.86;87.80
35848;BME280;22332;51.954;20.118;2023-11-18T05:37:42;100460.86;;;1.87;87.91
35848;BME280;22332;51.954;20.118;2023-11-18T05:40:48;100462.60;;;1.93;87.73
35848;BME280;22332;51.954;20.118;2023-11-18T05:44:00;100471.46;;;1.92;87.80
35848;BME280;22332;51.954;20.118;2023-11-18T05:47:06;100476.85;;;1.87;87.97
35848;BME280;22332;51.954;20.118;2023-11-18T05:50:12;100482.53;;;1.86;87.96
35848;BME280;22332;51.954;20.118;2023-11-18T05:53:19;100478.61;;;1.84;88.08
35848;BME280;22332;51.954;20.118;2023-11-18T05:56:24;100491.32;;;1.83;87.96
35848;BME280;22332;51.954;20.118;2023-11-18T05:59:30;100495.45;;;1.78;88.07
35848;BME280;22332;51.954;20.118;2023-11-18T06:02:36;100498.95;;;1.78;88.05
35848;BME280;22332;51.954;20.118;2023-11-18T06:05:43;100499.04;;;1.83;88.13
35848;BME280;22332;51.954;20.118;2023-11-18T06:08:49;100497.95;;;1.83;88.04
35848;BME280;22332;51.954;20.118;2023-11-18T06:11:55;100499.34;;;1.84;87.97
35848;BME280;22332;51.954;20.118;2023-11-18T06:15:00;100503.50;;;1.84;88.16
35848;BME280;22332;51.954;20.118;2023-11-18T06:18:06;100508.76;;;1.78;88.21
35848;BME280;22332;51.954;20.118;2023-11-18T06:21:13;100512.64;;;1.75;88.36
35848;BME280;22332;51.954;20.118;2023-11-18T06:24:19;100519.95;;;1.73;88.24
35848;BME280;22332;51.954;20.118;2023-11-18T06:27:25;100519.01;;;1.68;88.20
35848;BME280;22332;51.954;20.118;2023-11-18T06:30:31;100519.02;;;1.68;88.55
35848;BME280;22332;51.954;20.118;2023-11-18T06:33:40;100522.52;;;1.71;88.38
35848;BME280;22332;51.954;20.118;2023-11-18T06:36:47;100527.30;;;1.76;88.45
35848;BME280;22332;51.954;20.118;2023-11-18T06:39:52;100527.52;;;1.70;88.37
35848;BME280;22332;51.954;20.118;2023-11-18T06:42:58;100538.88;;;1.64;88.44
35848;BME280;22332;51.954;20.118;2023-11-18T06:46:08;100539.11;;;1.60;88.61
35848;BME280;22332;51.954;20.118;2023-11-18T06:49:16;100540.58;;;1.62;88.88
35848;BME280;22332;51.954;20.118;2023-11-18T06:52:22;100547.94;;;1.68;88.64
35848;BME280;22332;51.954;20.118;2023-11-18T06:55:28;100556.44;;;1.73;88.71
35848;BME280;22332;51.954;20.118;2023-11-18T06:58:34;100564.52;;;1.79;88.63
35848;BME280;22332;51.954;20.118;2023-11-18T07:01:42;100573.11;;;1.79;88.50
35848;BME280;22332;51.954;20.118;2023-11-18T07:04:50;100579.89;;;1.83;88.56
35848;BME280;22332;51.954;20.118;2023-11-18T07:07:55;100582.71;;;1.80;88.36
35848;BME280;22332;51.954;20.118;2023-11-18T07:11:01;100586.67;;;1.74;88.37
35848;BME280;22332;51.954;20.118;2023-11-18T07:14:07;100592.54;;;1.77;88.62
35848;BME280;22332;51.954;20.118;2023-11-18T07:17:13;100596.19;;;1.80;88.61
35848;BME280;22332;51.954;20.118;2023-11-18T07:20:19;100603.78;;;1.82;88.67
35848;BME280;22332;51.954;20.118;2023-11-18T07:23:25;100611.23;;;1.86;88.62
35848;BME280;22332;51.954;20.118;2023-11-18T07:26:30;100617.30;;;1.91;88.45
35848;BME280;22332;51.954;20.118;2023-11-18T07:29:37;100622.52;;;1.92;88.49
35848;BME280;22332;51.954;20.118;2023-11-18T07:32:42;100617.91;;;1.90;88.37
35848;BME280;22332;51.954;20.118;2023-11-18T07:35:48;100621.36;;;1.91;88.54
35848;BME280;22332;51.954;20.118;2023-11-18T07:38:54;100622.55;;;1.85;88.52
35848;BME280;22332;51.954;20.118;2023-11-18T07:42:00;100627.55;;;1.84;88.74
35848;BME280;22332;51.954;20.118;2023-11-18T07:45:07;100633.00;;;1.86;88.57
35848;BME280;22332;51.954;20.118;2023-11-18T07:48:21;100638.19;;;1.88;88.56
35848;BME280;22332;51.954;20.118;2023-11-18T07:51:27;100642.77;;;1.93;88.58
35848;BME280;22332;51.954;20.118;2023-11-18T07:54:33;100635.92;;;1.94;88.40
35848;BME280;22332;51.954;20.118;2023-11-18T07:57:39;100640.63;;;1.91;88.53
35848;BME280;22332;51.954;20.118;2023-11-18T08:00:45;100649.14;;;1.87;88.60
35848;BME280;22332;51.954;20.118;2023-11-18T08:03:50;100651.88;;;1.91;88.78
35848;BME280;22332;51.954;20.118;2023-11-18T08:06:57;100648.52;;;2.07;88.67
35848;BME280;22332;51.954;20.118;2023-11-18T08:10:04;100643.59;;;2.13;88.50
35848;BME280;22332;51.954;20.118;2023-11-18T08:13:10;100644.01;;;2.15;88.17
35848;BME280;22332;51.954;20.118;2023-11-18T08:16:17;100643.73;;;2.17;88.16
35848;BME280;22332;51.954;20.118;2023-11-18T08:19:22;100646.98;;;2.06;88.14
35848;BME280;22332;51.954;20.118;2023-11-18T08:22:28;100652.05;;;1.94;88.27
35848;BME280;22332;51.954;20.118;2023-11-18T08:25:34;100656.69;;;1.89;88.51
35848;BME280;22332;51.954;20.118;2023-11-18T08:28:41;100658.79;;;1.86;88.52
35848;BME280;22332;51.954;20.118;2023-11-18T08:31:46;100662.63;;;1.84;88.53
35848;BME280;22332;51.954;20.118;2023-11-18T08:34:53;100665.16;;;1.88;88.64
35848;BME280;22332;51.954;20.118;2023-11-18T08:37:59;100671.35;;;1.94;88.54
35848;BME280;22332;51.954;20.118;2023-11-18T08:41:06;100674.43;;;1.99;88.38
35848;BME280;22332;51.954;20.118;2023-11-18T08:44:13;100677.73;;;1.96;88.56
35848;BME280;22332;51.954;20.118;2023-11-18T08:47:19;100680.54;;;1.90;88.24
35848;BME280;22332;51.954;20.118;2023-11-18T08:50:25;100682.17;;;1.82;88.67
35848;BME280;22332;51.954;20.118;2023-11-18T08:53:32;100683.45;;;1.91;88.83
35848;BME280;22332;51.954;20.118;2023-11-18T08:56:45;100690.80;;;1.98;88.63
35848;BME280;22332;51.954;20.118;2023-11-18T08:59:51;100695.92;;;2.03;88.71
35848;BME280;22332;51.954;20.118;2023-11-18T09:02:57;100701.75;;;2.08;88.27
35848;BME280;22332;51.954;20.118;2023-11-18T09:06:07;100699.95;;;2.06;88.21
35848;BME280;22332;51.954;20.118;2023-11-18T09:09:21;100702.70;;;2.08;88.34
35848;BME280;22332;51.954;20.118;2023-11-18T09:12:31;100703.42;;;2.04;87.99
35848;BME280;22332;51.954;20.118;2023-11-18T09:15:37;100703.56;;;1.95;88.34
35848;BME280;22332;51.954;20.118;2023-11-18T09:18:43;100701.84;;;1.94;88.31
35848;BME280;22332;51.954;20.118;2023-11-18T09:21:49;100697.16;;;1.93;88.20
35848;BME280;22332;51.954;20.118;2023-11-18T09:24:56;100697.85;;;1.97;88.46
35848;BME280;22332;51.954;20.118;2023-11-18T09:28:01;100697.80;;;2.10;88.46
35848;BME280;22332;51.954;20.118;2023-11-18T09:31:08;100701.40;;;2.27;88.39
35848;BME280;22332;51.954;20.118;2023-11-18T09:34:16;100703.20;;;2.41;87.89
35848;BME280;22332;51.954;20.118;2023-11-18T09:37:22;100705.09;;;2.42;87.78
35848;BME280;22332;51.954;20.118;2023-11-18T09:40:29;100711.36;;;2.46;87.80
35848;BME280;22332;51.954;20.118;2023-11-18T09:43:38;100713.20;;;2.50;87.68
35848;BME280;22332;51.954;20.118;2023-11-18T09:46:52;100712.81;;;2.54;87.47
35848;BME280;22332;51.954;20.118;2023-11-18T09:50:11;100716.26;;;2.61;87.75
35848;BME280;22332;51.954;20.118;2023-11-18T09:53:19;100716.98;;;2.70;87.82
35848;BME280;22332;51.954;20.118;2023-11-18T09:56:36;100718.27;;;2.72;87.02
35848;BME280;22332;51.954;20.118;2023-11-18T09:59:49;100717.66;;;2.64;87.16
35848;BME280;22332;51.954;20.118;2023-11-18T10:02:59;100719.14;;;2.68;87.50
35848;BME280;22332;51.954;20.118;2023-11-18T10:06:07;100726.47;;;2.72;87.12
35848;BME280;22332;51.954;20.118;2023-11-18T10:09:14;100727.23;;;2.74;86.92
35848;BME280;22332;51.954;20.118;2023-11-18T10:12:24;100722.59;;;2.73;87.11
35848;BME280;22332;51.954;20.118;2023-11-18T10:15:31;100720.55;;;2.75;87.05
35848;BME280;22332;51.954;20.118;2023-11-18T10:18:39;100723.71;;;2.72;86.77
35848;BME280;22332;51.954;20.118;2023-11-18T10:21:53;100725.64;;;2.75;87.00
35848;BME280;22332;51.954;20.118;2023-11-18T10:25:01;100727.63;;;2.77;86.27
35848;BME280;22332;51.954;20.118;2023-11-18T10:28:22;100727.64;;;2.80;86.84
35848;BME280;22332;51.954;20.118;2023-11-18T10:31:28;100723.81;;;2.85;86.62
35848;BME280;22332;51.954;20.118;2023-11-18T10:34:35;100728.27;;;2.81;86.82
35848;BME280;22332;51.954;20.118;2023-11-18T10:37:41;100739.28;;;2.67;86.24
35848;BME280;22332;51.954;20.118;2023-11-18T10:40:47;100738.64;;;2.45;86.25
35848;BME280;22332;51.954;20.118;2023-11-18T10:44:06;100740.36;;;2.30;86.40
35848;BME280;22332;51.954;20.118;2023-11-18T10:47:18;100739.27;;;2.24;86.99
35848;BME280;22332;51.954;20.118;2023-11-18T10:50:25;100742.77;;;2.34;87.00
35848;BME280;22332;51.954;20.118;2023-11-18T10:53:36;100746.75;;;2.44;86.98
35848;BME280;22332;51.954;20.118;2023-11-18T10:56:49;100750.69;;;2.55;87.15
35848;BME280;22332;51.954;20.118;2023-11-18T11:00:01;100756.31;;;2.64;87.22
35848;BME280;22332;51.954;20.118;2023-11-18T11:03:08;100759.98;;;2.58;86.58
35848;BME280;22332;51.954;20.118;2023-11-18T11:06:19;100768.20;;;2.44;86.38
35848;BME280;22332;51.954;20.118;2023-11-18T11:09:27;100774.38;;;2.37;86.72
35848;BME280;22332;51.954;20.118;2023-11-18T11:12:50;100782.03;;;2.29;86.57
35848;BME280;22332;51.954;20.118;2023-11-18T11:15:57;100786.47;;;2.31;87.20
35848;BME280;22332;51.954;20.118;2023-11-18T11:19:05;100787.20;;;2.40;86.77
35848;BME280;22332;51.954;20.118;2023-11-18T11:22:15;100791.39;;;2.44;86.86
35848;BME280;22332;51.954;20.118;2023-11-18T11:25:31;100788.94;;;2.52;86.57
35848;BME280;22332;51.954;20.118;2023-11-18T11:28:44;100788.33;;;2.60;86.93
35848;BME280;22332;51.954;20.118;2023-11-18T11:32:02;100791.88;;;2.65;86.64
35848;BME280;22332;51.954;20.118;2023-11-18T11:35:22;100796.09;;;2.57;86.51
35848;BME280;22332;51.954;20.118;2023-11-18T11:38:27;100800.29;;;2.53;86.59
35848;BME280;22332;51.954;20.118;2023-11-18T11:41:34;100802.96;;;2.53;86.64
35848;BME280;22332;51.954;20.118;2023-11-18T11:44:40;100805.98;;;2.43;86.45
35848;BME280;22332;51.954;20.118;2023-11-18T11:47:47;100812.52;;;2.36;86.45
35848;BME280;22332;51.954;20.118;2023-11-18T11:51:11;100812.67;;;2.30;86.43
35848;BME280;22332;51.954;20.118;2023-11-18T11:54:25;100815.81;;;2.31;86.78
35848;BME280;22332;51.954;20.118;2023-11-18T11:57:34;100823.10;;;2.29;86.67
35848;BME280;22332;51.954;20.118;2023-11-18T12:00:40;100833.60;;;2.27;86.61
35848;BME280;22332;51.954;20.118;2023-11-18T12:03:47;100845.02;;;2.24;86.58
35848;BME280;22332;51.954;20.118;2023-11-18T12:06:54;100853.76;;;2.14;86.80
35848;BME280;22332;51.954;20.118;2023-11-18T12:10:01;100856.23;;;2.08;86.96
35848;BME280;22332;51.954;20.118;2023-11-18T12:13:11;100854.97;;;1.95;86.91
35848;BME280;22332;51.954;20.118;2023-11-18T12:16:20;100851.33;;;1.88;87.12
35848;BME280;22332;51.954;20.118;2023-11-18T12:19:32;100852.49;;;1.89;87.62
35848;BME280;22332;51.954;20.118;2023-11-18T12:23:05;100854.18;;;1.87;87.41
35848;BME280;22332;51.954;20.118;2023-11-18T12:26:40;100857.98;;;1.85;87.60
35848;BME280;22332;51.954;20.118;2023-11-18T12:29:47;100862.23;;;1.78;87.37
35848;BME280;22332;51.954;20.118;2023-11-18T12:33:01;100864.36;;;1.74;87.67
35848;BME280;22332;51.954;20.118;2023-11-18T12:40:27;100873.64;;;1.57;87.66
35848;BME280;22332;51.954;20.118;2023-11-18T12:43:48;100879.02;;;1.48;87.87
35848;BME280;22332;51.954;20.118;2023-11-18T12:46:54;100886.80;;;1.41;87.93
35848;BME280;22332;51.954;20.118;2023-11-18T12:50:14;100894.06;;;1.38;87.93
35848;BME280;22332;51.954;20.118;2023-11-18T12:53:29;100895.69;;;1.38;87.94
35848;BME280;22332;51.954;20.118;2023-11-18T12:56:35;100891.48;;;1.38;88.06
35848;BME280;22332;51.954;20.118;2023-11-18T12:59:43;100898.75;;;1.36;88.21
35848;BME280;22332;51.954;20.118;2023-11-18T13:02:50;100895.46;;;1.42;87.98
35848;BME280;22332;51.954;20.118;2023-11-18T13:05:56;100895.73;;;1.51;88.06
35848;BME280;22332;51.954;20.118;2023-11-18T13:09:02;100894.17;;;1.53;88.02
35848;BME280;22332;51.954;20.118;2023-11-18T13:12:14;100900.70;;;1.50;88.03
35848;BME280;22332;51.954;20.118;2023-11-18T13:15:21;100901.20;;;1.50;88.00
35848;BME280;22332;51.954;20.118;2023-11-18T13:18:46;100910.06;;;1.45;88.09
35848;BME280;22332;51.954;20.118;2023-11-18T13:21:57;100919.77;;;1.40;88.15
35848;BME280;22332;51.954;20.118;2023-11-18T13:25:05;100923.23;;;1.37;88.21
35848;BME280;22332;51.954;20.118;2023-11-18T13:28:10;100928.06;;;1.35;88.02
35848;BME280;22332;51.954;20.118;2023-11-18T13:31:17;100925.15;;;1.30;88.10
35848;BME280;22332;51.954;20.118;2023-11-18T13:34:23;100921.55;;;1.29;88.18
35848;BME280;22332;51.954;20.118;2023-11-18T13:37:30;100921.36;;;1.29;88.27
35848;BME280;22332;51.954;20.118;2023-11-18T13:40:45;100927.11;;;1.34;88.36
35848;BME280;22332;51.954;20.118;2023-11-18T13:43:51;100933.65;;;1.43;88.20
35848;BME280;22332;51.954;20.118;2023-11-18T13:46:57;100926.41;;;1.41;87.99
35848;BME280;22332;51.954;20.118;2023-11-18T13:50:08;100928.41;;;1.42;88.12
35848;BME280;22332;51.954;20.118;2023-11-18T13:53:14;100934.05;;;1.42;88.11
35848;BME280;22332;51.954;20.118;2023-11-18T13:56:20;100942.34;;;1.41;88.11
35848;BME280;22332;51.954;20.118;2023-11-18T13:59:27;100950.09;;;1.41;88.22
35848;BME280;22332;51.954;20.118;2023-11-18T14:02:33;100953.94;;;1.26;87.91
35848;BME280;22332;51.954;20.118;2023-11-18T14:05:40;100949.98;;;1.21;88.24
35848;BME280;22332;51.954;20.118;2023-11-18T14:08:47;100955.89;;;1.26;88.35
35848;BME280;22332;51.954;20.118;2023-11-18T14:11:55;100953.61;;;1.22;88.13
35848;BME280;22332;51.954;20.118;2023-11-18T14:15:01;100960.17;;;1.25;88.37
35848;BME280;22332;51.954;20.118;2023-11-18T14:18:08;100958.05;;;1.24;88.20
35848;BME280;22332;51.954;20.118;2023-11-18T14:21:13;100963.77;;;1.26;88.08
35848;BME280;22332;51.954;20.118;2023-11-18T14:24:20;100969.58;;;1.26;88.06
35848;BME280;22332;51.954;20.118;2023-11-18T14:27:27;100968.50;;;1.23;88.00
35848;BME280;22332;51.954;20.118;2023-11-18T14:30:32;100966.15;;;1.12;87.86
35848;BME280;22332;51.954;20.118;2023-11-18T14:33:39;100964.02;;;1.13;87.98
35848;BME280;22332;51.954;20.118;2023-11-18T14:36:44;100966.12;;;1.17;88.06
35848;BME280;22332;51.954;20.118;2023-11-18T14:39:50;100964.17;;;1.17;87.79
35848;BME280;22332;51.954;20.118;2023-11-18T14:42:57;100959.56;;;1.18;88.01
35848;BME280;22332;51.954;20.118;2023-11-18T14:46:02;100961.56;;;1.24;87.93
35848;BME280;22332;51.954;20.118;2023-11-18T14:49:09;100966.11;;;1.21;87.79
35848;BME280;22332;51.954;20.118;2023-11-18T14:52:14;100972.21;;;1.18;87.75
35848;BME280;22332;51.954;20.118;2023-11-18T14:55:20;100974.89;;;1.21;87.87
35848;BME280;22332;51.954;20.118;2023-11-18T14:58:26;100976.05;;;1.26;87.82
35848;BME280;22332;51.954;20.118;2023-11-18T15:01:33;100977.45;;;1.29;87.89
35848;BME280;22332;51.954;20.118;2023-11-18T15:04:38;100978.83;;;1.37;87.92
35848;BME280;22332;51.954;20.118;2023-11-18T15:07:45;100972.06;;;1.43;87.83
35848;BME280;22332;51.954;20.118;2023-11-18T15:10:52;100970.36;;;1.48;87.71
35848;BME280;22332;51.954;20.118;2023-11-18T15:13:57;100973.02;;;1.51;87.71
35848;BME280;22332;51.954;20.118;2023-11-18T15:17:03;100978.59;;;1.45;87.49
35848;BME280;22332;51.954;20.118;2023-11-18T15:20:10;100984.38;;;1.41;87.87
35848;BME280;22332;51.954;20.118;2023-11-18T15:23:17;100985.96;;;1.34;87.81
35848;BME280;22332;51.954;20.118;2023-11-18T15:26:26;100988.98;;;1.30;88.02
35848;BME280;22332;51.954;20.118;2023-11-18T15:29:31;100990.91;;;1.30;87.99
35848;BME280;22332;51.954;20.118;2023-11-18T15:32:43;100987.96;;;1.33;88.04
35848;BME280;22332;51.954;20.118;2023-11-18T15:35:49;100987.42;;;1.37;88.32
35848;BME280;22332;51.954;20.118;2023-11-18T15:38:55;100998.05;;;1.42;88.34
35848;BME280;22332;51.954;20.118;2023-11-18T15:42:07;100999.29;;;1.49;88.19
35848;BME280;22332;51.954;20.118;2023-11-18T15:45:15;101001.08;;;1.48;88.01
35848;BME280;22332;51.954;20.118;2023-11-18T15:48:21;101002.77;;;1.39;87.89
35848;BME280;22332;51.954;20.118;2023-11-18T15:51:26;101003.36;;;1.30;87.89
35848;BME280;22332;51.954;20.118;2023-11-18T15:54:34;100995.92;;;1.28;88.45
35848;BME280;22332;51.954;20.118;2023-11-18T15:57:40;100995.30;;;1.30;88.12
35848;BME280;22332;51.954;20.118;2023-11-18T16:00:46;100999.02;;;1.29;88.18
35848;BME280;22332;51.954;20.118;2023-11-18T16:03:51;100998.11;;;1.30;88.31
35848;BME280;22332;51.954;20.118;2023-11-18T16:06:57;101003.33;;;1.27;88.11
35848;BME280;22332;51.954;20.118;2023-11-18T16:10:02;101005.39;;;1.17;88.03
35848;BME280;22332;51.954;20.118;2023-11-18T16:13:09;101007.89;;;1.12;88.33
35848;BME280;22332;51.954;20.118;2023-11-18T16:16:14;101008.88;;;1.10;88.41
35848;BME280;22332;51.954;20.118;2023-11-18T16:19:20;101014.45;;;1.07;88.43
35848;BME280;22332;51.954;20.118;2023-11-18T16:22:26;101012.88;;;1.03;88.43
35848;BME280;22332;51.954;20.118;2023-11-18T16:25:32;101018.04;;;1.09;88.53